createdAt,value
2022-12-25T00:01:54.453Z,9.50
2022-12-25T00:04:21.152Z,9.40
2022-12-25T00:06:47.899Z,9.40
2022-12-25T00:09:14.617Z,9.40
2022-12-25T00:11:41.307Z,9.40
2022-12-25T00:14:07.993Z,9.30
2022-12-25T00:16:34.709Z,9.30
2022-12-25T00:19:01.434Z,9.40
2022-12-25T00:21:28.269Z,9.30
2022-12-25T00:23:56.547Z,9.30
2022-12-25T00:26:25.477Z,9.30
2022-12-25T00:28:56.315Z,9.30
2022-12-25T00:31:23.255Z,9.30
2022-12-25T00:33:50.468Z,9.30
2022-12-25T00:36:18.315Z,9.30
2022-12-25T00:38:45.225Z,9.40
2022-12-25T00:41:13.690Z,9.30
2022-12-25T00:43:41.904Z,9.30
2022-12-25T00:46:08.959Z,9.30
2022-12-25T00:48:35.758Z,9.30
2022-12-25T00:51:07.734Z,9.30
2022-12-25T00:53:34.445Z,9.30
2022-12-25T00:56:03.319Z,9.20
2022-12-25T00:58:45.312Z,9.20
2022-12-25T01:01:13.019Z,9.20
2022-12-25T01:03:39.744Z,9.10
2022-12-25T01:06:07.311Z,9.20
2022-12-25T01:08:36.000Z,9.20
2022-12-25T01:11:08.066Z,9.10
2022-12-25T01:13:35.919Z,9.10
2022-12-25T01:16:09.689Z,9.10
2022-12-25T01:18:36.575Z,9.10
2022-12-25T01:21:11.376Z,9.10
2022-12-25T01:23:38.185Z,9.10
2022-12-25T01:26:09.661Z,9.20
2022-12-25T01:28:36.409Z,9.20
2022-12-25T01:31:03.398Z,9.20
2022-12-25T01:33:30.145Z,9.20
2022-12-25T01:35:58.475Z,9.20
2022-12-25T01:38:25.245Z,9.20
2022-12-25T01:40:51.930Z,9.20
2022-12-25T01:43:29.333Z,9.20
2022-12-25T01:45:56.394Z,9.20
2022-12-25T01:48:43.511Z,9.20
2022-12-25T01:51:20.311Z,9.20
2022-12-25T01:53:47.083Z,9.20
2022-12-25T01:56:13.777Z,9.20
2022-12-25T01:58:40.596Z,9.30
2022-12-25T02:01:07.642Z,9.20
2022-12-25T02:03:34.411Z,9.20
2022-12-25T02:06:01.232Z,9.20
2022-12-25T02:08:27.896Z,9.30
2022-12-25T02:10:54.571Z,9.20
2022-12-25T02:13:21.276Z,9.20
2022-12-25T02:16:13.210Z,9.20
2022-12-25T02:18:44.150Z,9.20
2022-12-25T02:21:16.862Z,9.20
2022-12-25T02:24:00.137Z,9.20
2022-12-25T02:26:29.795Z,9.20
2022-12-25T02:29:21.487Z,9.30
2022-12-25T02:31:59.589Z,9.20
2022-12-25T02:34:34.211Z,9.30
2022-12-25T02:37:13.880Z,9.30
2022-12-25T02:40:00.523Z,9.30
2022-12-25T02:43:12.276Z,9.30
2022-12-25T02:46:06.728Z,9.30
2022-12-25T02:48:53.608Z,9.30
2022-12-25T02:51:40.632Z,9.20
2022-12-25T02:54:30.758Z,9.20
2022-12-25T02:57:16.289Z,9.20
2022-12-25T03:00:02.947Z,9.20
2022-12-25T03:02:48.743Z,9.20
2022-12-25T03:05:35.385Z,9.20
2022-12-25T03:08:04.513Z,9.20
2022-12-25T03:10:49.619Z,9.20
2022-12-25T03:13:18.911Z,9.10
2022-12-25T03:16:05.537Z,9.20
2022-12-25T03:18:33.273Z,9.10
2022-12-25T03:21:18.589Z,9.10
2022-12-25T03:24:08.464Z,9.10
2022-12-25T03:26:53.472Z,9.20
2022-12-25T03:29:39.043Z,9.10
2022-12-25T03:32:19.935Z,9.10
2022-12-25T03:35:14.698Z,9.10
2022-12-25T03:38:29.034Z,9.20
2022-12-25T03:41:16.768Z,9.20
2022-12-25T03:44:19.316Z,9.10
2022-12-25T03:47:11.932Z,9.10
2022-12-25T03:50:26.651Z,9.10
2022-12-25T03:53:11.758Z,9.10
2022-12-25T03:55:56.957Z,9.10
2022-12-25T03:58:43.763Z,9.10
2022-12-25T04:01:28.984Z,9.00
2022-12-25T04:04:14.243Z,9.00
2022-12-25T04:07:00.003Z,9.10
2022-12-25T04:09:45.201Z,9.00
2022-12-25T04:12:30.396Z,9.00
2022-12-25T04:15:15.442Z,9.10
2022-12-25T04:18:00.709Z,9.10
2022-12-25T04:20:45.646Z,9.10
2022-12-25T04:23:30.850Z,9.00
2022-12-25T04:26:16.931Z,9.00
2022-12-25T04:29:02.004Z,9.00
2022-12-25T04:31:47.309Z,9.10
2022-12-25T04:34:32.841Z,9.10
2022-12-25T04:36:59.545Z,9.00
2022-12-25T04:39:26.244Z,9.10
2022-12-25T04:41:52.940Z,9.10
2022-12-25T04:44:19.641Z,9.00
2022-12-25T04:46:46.442Z,9.00
2022-12-25T04:49:13.484Z,9.00
2022-12-25T04:51:40.199Z,9.10
2022-12-25T04:54:06.936Z,9.00
2022-12-25T04:56:33.671Z,9.10
2022-12-25T04:59:00.358Z,9.10
2022-12-25T05:01:27.314Z,9.10
2022-12-25T05:03:54.195Z,9.10
2022-12-25T05:06:20.998Z,9.10
2022-12-25T05:08:47.672Z,9.10
2022-12-25T05:11:14.917Z,9.10
2022-12-25T05:13:41.691Z,9.10
2022-12-25T05:16:10.169Z,9.10
2022-12-25T05:18:36.946Z,9.20
2022-12-25T05:21:04.436Z,9.10
2022-12-25T05:23:31.182Z,9.10
2022-12-25T05:25:57.935Z,9.10
2022-12-25T05:28:24.628Z,9.10
2022-12-25T05:30:51.405Z,9.10
2022-12-25T05:33:18.108Z,9.10
2022-12-25T05:35:44.782Z,9.10
2022-12-25T05:38:11.503Z,9.10
2022-12-25T05:40:39.782Z,9.10
2022-12-25T05:43:06.871Z,9.10
2022-12-25T05:45:33.593Z,9.10
2022-12-25T05:48:00.305Z,9.00
2022-12-25T05:50:27.045Z,9.10
2022-12-25T05:53:08.373Z,9.00
2022-12-25T05:55:39.918Z,9.10
2022-12-25T05:58:07.276Z,9.10
2022-12-25T06:00:34.073Z,9.10
2022-12-25T06:03:00.991Z,9.10
2022-12-25T06:05:27.942Z,9.10
2022-12-25T06:07:54.603Z,9.20
2022-12-25T06:10:21.600Z,9.10
2022-12-25T06:12:48.313Z,9.10
2022-12-25T06:15:14.987Z,9.10
2022-12-25T06:17:41.721Z,9.10
2022-12-25T06:20:08.780Z,9.10
2022-12-25T06:22:35.592Z,9.10
2022-12-25T06:25:02.472Z,9.10
2022-12-25T06:27:29.199Z,9.10
2022-12-25T06:29:56.071Z,9.10
2022-12-25T06:32:22.803Z,9.10
2022-12-25T06:34:49.535Z,9.10
2022-12-25T06:37:16.280Z,9.10
2022-12-25T06:39:42.973Z,9.10
2022-12-25T06:42:09.719Z,9.10
2022-12-25T06:44:36.379Z,9.10
2022-12-25T06:47:03.139Z,9.10
2022-12-25T06:49:29.851Z,9.10
2022-12-25T06:51:56.616Z,9.10
2022-12-25T06:54:23.315Z,9.10
2022-12-25T06:56:51.023Z,9.10
2022-12-25T06:59:17.750Z,9.10
2022-12-25T07:01:52.937Z,9.10
2022-12-25T07:04:27.195Z,9.10
2022-12-25T07:06:53.980Z,9.10
2022-12-25T07:09:20.704Z,9.10
2022-12-25T07:11:47.395Z,9.10
2022-12-25T07:14:23.525Z,9.10
2022-12-25T07:16:51.219Z,9.10
2022-12-25T07:19:19.085Z,9.10
2022-12-25T07:21:46.222Z,9.10
2022-12-25T07:24:17.579Z,9.10
2022-12-25T07:26:44.374Z,9.00
2022-12-25T07:29:11.082Z,9.10
2022-12-25T07:31:37.803Z,9.00
2022-12-25T07:34:04.601Z,9.10
2022-12-25T07:36:31.436Z,9.10
2022-12-25T07:38:58.213Z,9.10
2022-12-25T07:41:25.076Z,9.10
2022-12-25T07:43:55.277Z,9.20
2022-12-25T07:46:22.575Z,9.10
2022-12-25T07:48:49.734Z,9.10
2022-12-25T07:51:16.491Z,9.20
2022-12-25T07:53:43.213Z,9.20
2022-12-25T07:56:14.922Z,9.20
2022-12-25T07:58:41.726Z,9.20
2022-12-25T08:01:11.593Z,9.20
2022-12-25T08:03:38.617Z,9.20
2022-12-25T08:06:07.057Z,9.20
2022-12-25T08:08:33.989Z,9.10
2022-12-25T08:11:00.810Z,9.20
2022-12-25T08:13:30.747Z,9.10
2022-12-25T08:15:59.133Z,9.10
2022-12-25T08:18:29.931Z,9.10
2022-12-25T08:20:57.688Z,9.20
2022-12-25T08:23:24.404Z,9.20
2022-12-25T08:25:51.206Z,9.20
2022-12-25T08:28:17.912Z,9.30
2022-12-25T08:30:44.662Z,9.30
2022-12-25T08:33:11.410Z,9.30
2022-12-25T08:35:38.135Z,9.30
2022-12-25T08:38:04.812Z,9.40
2022-12-25T08:40:32.385Z,9.30
2022-12-25T08:42:59.133Z,9.30
2022-12-25T08:45:31.177Z,9.30
2022-12-25T08:48:01.382Z,9.40
2022-12-25T08:50:28.061Z,9.40
2022-12-25T08:52:54.758Z,9.40
2022-12-25T08:55:21.540Z,9.40
2022-12-25T08:57:48.239Z,9.50
2022-12-25T09:00:15.426Z,9.50
2022-12-25T09:02:42.294Z,9.50
2022-12-25T09:05:09.452Z,9.50
2022-12-25T09:07:36.179Z,9.50
2022-12-25T09:10:02.977Z,9.50
2022-12-25T09:12:29.655Z,9.60
2022-12-25T09:14:56.340Z,9.60
2022-12-25T09:17:23.046Z,9.60
2022-12-25T09:19:49.786Z,9.60
2022-12-25T09:22:16.548Z,9.70
2022-12-25T09:24:43.665Z,9.70
2022-12-25T09:27:10.394Z,9.80
2022-12-25T09:29:38.879Z,9.80
2022-12-25T09:32:06.780Z,9.80
2022-12-25T09:34:33.477Z,9.70
2022-12-25T09:37:00.158Z,9.80
2022-12-25T09:39:27.111Z,9.70
2022-12-25T09:41:55.176Z,9.80
2022-12-25T09:44:33.598Z,9.70
2022-12-25T09:47:06.326Z,9.70
2022-12-25T09:49:40.336Z,9.70
2022-12-25T09:52:17.004Z,9.60
2022-12-25T09:55:17.908Z,9.60
2022-12-25T09:57:54.248Z,9.60
2022-12-25T10:00:22.806Z,9.60
2022-12-25T10:03:11.192Z,9.60
2022-12-25T10:06:06.484Z,9.60
2022-12-25T10:09:01.599Z,9.50
2022-12-25T10:11:52.337Z,9.50
2022-12-25T10:14:27.909Z,9.50
2022-12-25T10:17:13.516Z,9.60
2022-12-25T10:19:54.910Z,9.60
2022-12-25T10:22:50.341Z,9.60
2022-12-25T10:25:19.510Z,9.60
2022-12-25T10:27:47.917Z,9.60
2022-12-25T10:30:32.770Z,9.60
2022-12-25T10:32:59.746Z,9.60
2022-12-25T10:35:28.252Z,9.70
2022-12-25T10:38:14.753Z,9.70
2022-12-25T10:41:02.602Z,9.70
2022-12-25T10:43:55.039Z,9.80
2022-12-25T10:46:22.908Z,9.80
2022-12-25T10:48:53.591Z,9.80
2022-12-25T10:51:34.023Z,9.80
2022-12-25T10:54:04.498Z,9.80
2022-12-25T10:56:31.145Z,9.90
2022-12-25T10:59:05.808Z,9.90
2022-12-25T11:01:32.602Z,9.90
2022-12-25T11:03:59.458Z,10.00
2022-12-25T11:06:27.858Z,9.90
2022-12-25T11:08:56.593Z,10.00
2022-12-25T11:11:23.334Z,10.00
2022-12-25T11:13:52.016Z,10.10
2022-12-25T11:16:32.797Z,10.10
2022-12-25T11:18:59.950Z,10.10
2022-12-25T11:21:34.161Z,10.10
2022-12-25T11:24:05.646Z,10.20
2022-12-25T11:26:45.743Z,10.10
2022-12-25T11:29:26.806Z,10.10
2022-12-25T11:31:53.984Z,10.10
2022-12-25T11:34:33.602Z,10.20
2022-12-25T11:37:00.951Z,10.30
2022-12-25T11:39:32.746Z,10.30
2022-12-25T11:42:32.715Z,10.40
2022-12-25T11:45:13.742Z,10.50
2022-12-25T11:47:46.394Z,10.60
2022-12-25T11:50:29.432Z,10.60
2022-12-25T11:52:56.535Z,10.80
2022-12-25T11:55:41.172Z,10.80
2022-12-25T11:58:20.667Z,10.80
2022-12-25T12:00:47.723Z,10.80
2022-12-25T12:03:28.822Z,10.90
2022-12-25T12:06:44.875Z,10.90
2022-12-25T12:09:39.096Z,10.90
2022-12-25T12:12:48.608Z,10.90
2022-12-25T12:15:18.743Z,10.80
2022-12-25T12:17:45.610Z,10.80
2022-12-25T12:20:14.319Z,10.80
2022-12-25T12:22:48.692Z,10.80
2022-12-25T12:25:15.485Z,10.70
2022-12-25T12:27:42.160Z,10.80
2022-12-25T12:30:27.002Z,10.80
2022-12-25T12:32:54.892Z,10.70
2022-12-25T12:35:26.754Z,10.70
2022-12-25T12:37:59.568Z,10.70
2022-12-25T12:40:27.948Z,10.70
2022-12-25T12:42:54.637Z,10.70
2022-12-25T12:45:28.944Z,10.70
2022-12-25T12:47:56.060Z,10.70
2022-12-25T12:50:30.239Z,10.80
2022-12-25T12:52:57.163Z,10.90
2022-12-25T12:55:31.663Z,11.00
2022-12-25T12:58:02.810Z,11.10
2022-12-25T13:00:52.321Z,11.20
2022-12-25T13:03:22.053Z,11.20
2022-12-25T13:06:01.122Z,11.00
2022-12-25T13:08:39.907Z,11.10
2022-12-25T13:11:20.123Z,11.10
2022-12-25T13:13:47.207Z,11.10
2022-12-25T13:16:19.679Z,11.10
2022-12-25T13:18:46.406Z,11.10
2022-12-25T13:21:17.082Z,11.10
2022-12-25T13:23:43.806Z,11.10
2022-12-25T13:26:17.202Z,11.20
2022-12-25T13:28:46.269Z,11.10
2022-12-25T13:31:17.854Z,11.10
2022-12-25T13:33:49.494Z,11.10
2022-12-25T13:36:16.212Z,11.10
2022-12-25T13:38:44.132Z,11.10
2022-12-25T13:41:29.293Z,11.10
2022-12-25T13:43:59.051Z,11.10
2022-12-25T13:46:26.889Z,11.10
2022-12-25T13:49:00.311Z,11.20
2022-12-25T13:51:27.993Z,11.10
2022-12-25T13:54:05.636Z,11.20
2022-12-25T13:56:32.339Z,11.10
2022-12-25T13:58:59.176Z,11.10
2022-12-25T14:01:25.918Z,11.20
2022-12-25T14:03:52.667Z,11.20
2022-12-25T14:06:19.407Z,11.20
2022-12-25T14:08:46.366Z,11.20
2022-12-25T14:11:14.993Z,11.20
2022-12-25T14:13:42.862Z,11.10
2022-12-25T14:16:09.840Z,11.20
2022-12-25T14:18:36.579Z,11.10
2022-12-25T14:21:10.686Z,11.10
2022-12-25T14:23:47.584Z,11.10
2022-12-25T14:26:21.328Z,11.00
2022-12-25T14:28:48.991Z,11.00
2022-12-25T14:31:15.818Z,11.00
2022-12-25T14:33:42.582Z,11.00
2022-12-25T14:36:10.927Z,10.90
2022-12-25T14:38:40.798Z,10.90
2022-12-25T14:41:33.520Z,10.90
2022-12-25T14:44:02.217Z,11.00
2022-12-25T14:46:31.052Z,11.00
2022-12-25T14:49:21.184Z,11.00
2022-12-25T14:51:47.862Z,11.00
2022-12-25T14:54:16.538Z,11.00
2022-12-25T14:56:47.059Z,11.00
2022-12-25T14:59:19.143Z,11.10
2022-12-25T15:01:53.115Z,11.00
2022-12-25T15:04:20.563Z,11.00
2022-12-25T15:06:59.782Z,10.90
2022-12-25T15:09:27.006Z,10.90
2022-12-25T15:11:57.481Z,10.90
2022-12-25T15:14:24.732Z,10.90
2022-12-25T15:16:55.457Z,10.80
2022-12-25T15:19:36.522Z,10.80
2022-12-25T15:22:03.929Z,10.80
2022-12-25T15:24:31.724Z,10.80
2022-12-25T15:27:00.179Z,10.80
2022-12-25T15:30:00.260Z,10.80
2022-12-25T15:32:18.926Z,10.80
2022-12-25T15:34:47.024Z,10.80
2022-12-25T15:37:14.078Z,10.80
2022-12-25T15:39:40.833Z,10.90
2022-12-25T15:42:19.603Z,10.90
2022-12-25T15:44:46.513Z,10.90
2022-12-25T15:47:14.149Z,10.90
2022-12-25T15:49:40.996Z,10.90
2022-12-25T15:52:10.412Z,10.90
2022-12-25T15:54:40.257Z,10.90
2022-12-25T15:57:09.899Z,10.90
2022-12-25T15:59:36.550Z,11.00
2022-12-25T16:02:03.332Z,11.00
2022-12-25T16:04:31.340Z,11.00
2022-12-25T16:06:58.343Z,11.10
2022-12-25T16:09:26.493Z,11.00
2022-12-25T16:11:53.231Z,11.10
2022-12-25T16:14:20.040Z,11.10
2022-12-25T16:16:46.719Z,11.10
2022-12-25T16:19:13.429Z,11.10
2022-12-25T16:21:42.345Z,11.10
2022-12-25T16:24:09.249Z,11.10
2022-12-25T16:26:35.995Z,11.10
2022-12-25T16:29:06.933Z,11.20
2022-12-25T16:31:34.880Z,11.30
2022-12-25T16:34:01.759Z,11.30
2022-12-25T16:36:28.517Z,11.30
2022-12-25T16:38:55.273Z,11.30
2022-12-25T16:41:22.030Z,11.30
2022-12-25T16:43:48.711Z,11.30
2022-12-25T16:46:16.904Z,11.40
2022-12-25T16:48:43.684Z,11.50
2022-12-25T16:51:14.375Z,11.40
2022-12-25T16:53:41.122Z,11.50
2022-12-25T16:56:08.860Z,11.50
2022-12-25T16:58:35.674Z,11.50
2022-12-25T17:01:11.921Z,11.40
2022-12-25T17:03:38.853Z,11.40
2022-12-25T17:06:16.115Z,11.40
2022-12-25T17:08:43.050Z,11.50
2022-12-25T17:11:09.919Z,11.50
2022-12-25T17:13:36.674Z,11.50
2022-12-25T17:16:17.182Z,11.50
2022-12-25T17:18:44.004Z,11.50
2022-12-25T17:21:10.869Z,11.50
2022-12-25T17:23:38.094Z,11.50
2022-12-25T17:26:05.408Z,11.50
2022-12-25T17:28:33.637Z,11.60
2022-12-25T17:31:08.274Z,11.50
2022-12-25T17:33:38.920Z,11.50
2022-12-25T17:36:07.446Z,11.40
2022-12-25T17:38:34.229Z,11.40
2022-12-25T17:41:02.170Z,11.40
2022-12-25T17:43:29.004Z,11.40
2022-12-25T17:45:55.670Z,11.40
2022-12-25T17:48:22.452Z,11.50
2022-12-25T17:50:49.132Z,11.40
2022-12-25T17:53:15.824Z,11.40
2022-12-25T17:55:42.647Z,11.40
2022-12-25T17:58:09.390Z,11.40
2022-12-25T18:00:36.413Z,11.50
2022-12-25T18:03:10.823Z,11.50
2022-12-25T18:05:38.463Z,11.50
2022-12-25T18:08:05.295Z,11.50
2022-12-25T18:10:40.286Z,11.40
2022-12-25T18:13:07.100Z,11.50
2022-12-25T18:15:37.151Z,11.40
2022-12-25T18:18:04.142Z,11.50
2022-12-25T18:20:35.910Z,11.40
2022-12-25T18:23:06.260Z,11.40
2022-12-25T18:25:33.611Z,11.30
2022-12-25T18:28:02.627Z,11.30
2022-12-25T18:30:29.729Z,11.30
2022-12-25T18:32:56.441Z,11.40
2022-12-25T18:35:28.881Z,11.30
2022-12-25T18:37:55.858Z,11.30
2022-12-25T18:40:22.901Z,11.30
2022-12-25T18:42:52.313Z,11.40
2022-12-25T18:45:21.539Z,11.40
2022-12-25T18:47:48.386Z,11.40
2022-12-25T18:50:15.172Z,11.40
2022-12-25T18:52:49.020Z,11.40
2022-12-25T18:55:18.243Z,11.30
2022-12-25T18:57:44.990Z,11.30
2022-12-25T19:00:11.875Z,11.30
2022-12-25T19:02:38.743Z,11.30
2022-12-25T19:05:05.958Z,11.30
2022-12-25T19:07:32.657Z,11.30
2022-12-25T19:09:59.346Z,11.30
2022-12-25T19:12:26.072Z,11.30
2022-12-25T19:14:52.872Z,11.30
2022-12-25T19:17:19.581Z,11.30
2022-12-25T19:19:46.557Z,11.30
2022-12-25T19:22:13.288Z,11.30
2022-12-25T19:24:40.004Z,11.20
2022-12-25T19:27:06.722Z,11.20
2022-12-25T19:29:33.398Z,11.30
2022-12-25T19:32:00.253Z,11.30
2022-12-25T19:34:27.044Z,11.40
2022-12-25T19:36:53.724Z,11.30
2022-12-25T19:39:20.465Z,11.40
2022-12-25T19:41:47.705Z,11.40
2022-12-25T19:44:14.481Z,11.40
2022-12-25T19:46:41.214Z,11.40
2022-12-25T19:49:10.072Z,11.30
2022-12-25T19:51:38.513Z,11.30
2022-12-25T19:54:05.667Z,11.30
2022-12-25T19:56:32.645Z,11.20
2022-12-25T19:58:59.369Z,11.10
2022-12-25T20:01:28.098Z,11.10
2022-12-25T20:03:55.084Z,11.00
2022-12-25T20:06:24.912Z,11.00
2022-12-25T20:08:53.549Z,11.00
2022-12-25T20:11:20.825Z,11.00
2022-12-25T20:13:47.761Z,10.90
2022-12-25T20:16:14.499Z,10.80
2022-12-25T20:18:41.309Z,10.80
2022-12-25T20:21:13.889Z,10.80
2022-12-25T20:23:41.639Z,10.80
2022-12-25T20:26:08.522Z,10.80
2022-12-25T20:28:36.324Z,10.80
2022-12-25T20:31:13.765Z,10.80
2022-12-25T20:33:40.442Z,10.90
2022-12-25T20:36:07.468Z,10.90
2022-12-25T20:38:34.960Z,10.80
2022-12-25T20:43:53.355Z,10.80
2022-12-25T20:46:20.174Z,10.80
2022-12-25T20:48:46.984Z,10.80
2022-12-25T20:51:16.148Z,10.80
2022-12-25T20:53:44.682Z,10.80
2022-12-25T20:56:12.377Z,10.70
2022-12-25T20:58:39.165Z,10.80
2022-12-25T21:01:07.558Z,10.80
2022-12-25T21:03:34.544Z,10.80
2022-12-25T21:06:01.454Z,10.80
2022-12-25T21:08:28.265Z,10.80
2022-12-25T21:10:56.265Z,10.80
2022-12-25T21:13:24.252Z,10.70
2022-12-25T21:15:51.698Z,10.70
2022-12-25T21:18:20.650Z,10.70
2022-12-25T21:20:48.142Z,10.70
2022-12-25T21:23:15.760Z,10.70
2022-12-25T21:25:42.489Z,10.60
2022-12-25T21:28:09.265Z,10.60
2022-12-25T21:30:36.100Z,10.60
2022-12-25T21:33:21.359Z,10.60
2022-12-25T21:35:48.060Z,10.60
2022-12-25T21:38:14.789Z,10.60
2022-12-25T21:40:41.455Z,10.60
2022-12-25T21:43:09.967Z,10.60
2022-12-25T21:45:36.708Z,10.60
2022-12-25T21:48:03.793Z,10.50
2022-12-25T21:50:49.027Z,10.60
2022-12-25T21:53:16.994Z,10.60
2022-12-25T21:55:43.810Z,10.60
2022-12-25T21:58:10.618Z,10.60
2022-12-25T22:00:37.319Z,10.60
2022-12-25T22:03:04.137Z,10.60
2022-12-25T22:05:49.270Z,10.60
2022-12-25T22:08:15.939Z,10.70
2022-12-25T22:10:42.599Z,10.70
2022-12-25T22:13:27.931Z,10.70
2022-12-25T22:16:21.947Z,10.80
2022-12-25T22:19:07.048Z,10.80
2022-12-25T22:21:33.704Z,10.80
2022-12-25T22:24:00.384Z,10.80
2022-12-25T22:26:27.176Z,10.80
2022-12-25T22:28:53.845Z,10.90
2022-12-25T22:31:20.674Z,10.90
2022-12-25T22:33:47.382Z,10.90
2022-12-25T22:36:14.096Z,10.90
2022-12-25T22:38:42.142Z,10.80
2022-12-25T22:41:08.819Z,10.80
2022-12-25T22:44:14.501Z,10.80
2022-12-25T22:46:22.391Z,10.80
2022-12-25T22:48:49.085Z,10.80
2022-12-25T22:51:15.745Z,10.70
2022-12-25T22:53:42.443Z,10.70
2022-12-25T22:56:11.826Z,10.70
2022-12-25T22:58:38.500Z,10.70
2022-12-25T23:01:08.779Z,10.70
2022-12-25T23:03:35.600Z,10.70
2022-12-25T23:06:02.383Z,10.70
2022-12-25T23:08:29.115Z,10.80
2022-12-25T23:10:55.849Z,10.80
2022-12-25T23:13:40.999Z,10.80
2022-12-25T23:16:08.389Z,10.80
2022-12-25T23:18:53.645Z,10.80
2022-12-25T23:21:38.774Z,10.80
2022-12-25T23:24:26.108Z,10.80
2022-12-25T23:26:52.787Z,10.80
2022-12-25T23:29:37.526Z,10.80
2022-12-25T23:32:28.020Z,10.80
2022-12-25T23:34:54.745Z,10.90
2022-12-25T23:37:21.564Z,10.90
2022-12-25T23:39:49.966Z,10.90
2022-12-25T23:42:17.283Z,10.80
2022-12-25T23:44:44.498Z,10.90
2022-12-25T23:47:11.340Z,10.90
2022-12-25T23:49:38.080Z,10.90
2022-12-25T23:52:04.982Z,11.00
2022-12-25T23:54:32.011Z,10.90
2022-12-25T23:56:58.850Z,11.00
2022-12-25T23:59:29.884Z,10.90
